TFM - Tactical Decision Aid
ID: Runway Winds: CIG/VIS Threshold:

KPDK - Atlanta/Dekalb-Peach, GA, US

Updated at: 0759 UTC 18 Sep 2021
Latest TAF at: 0734 UTC 18 Sep 2021

TAF Board

Time0753Z 18/08Z 18/09Z 18/10Z 18/11Z 18/12Z 18/13Z 18/14Z 18/15Z 18/16Z 18/17Z 18/18Z 18/19Z 18/20Z>>
Type OBS PRVL PRVL PRVL PRVL PRVL PRVL PRVL PRVL PRVL PRVL PRVL PRVL
  [PRB30]  
PRVL
  [PRB30]  
VIS 9 >6 >6 >6 5 5 5 5 5 >6 >6 >6 >6
  [3]  
>6
  [3]  
CIG -- 80 25 25 8 8 8 8 8 15 15 15 40
  [30]  
40
  [30]  
Cover CLR OVC BKN BKN BKN BKN BKN BKN BKN BKN BKN BKN BKN
  [BKN]  
BKN
  [BKN]  
FltCat VFR VFR MVFR MVFR IFR IFR IFR IFR IFR MVFR MVFR MVFR VFR
  [MVFR]  
VFR
  [MVFR]  
WX -- -- -- -- BR BR BR BR BR -- -- -- VCSH
  [TSRA]  
VCSH
  [TSRA]  
WDir VRB VRB VRB VRB VRB VRB VRB VRB VRB 80 80 80 100
[100]
100
[100]
WSpd 0 0 0 0 0 0 0 0 0 4 4 4 5
  [5]  
5
  [5]  
WGst -- -- -- -- -- -- -- -- -- -- -- -- --
  [--]  
--
  [--]  

TDA Impact Legend

  None Marginal Slight Moderate High
Visibility (sm) >5 2.9≤X≤5 0.9≤X<2.9 <0.9
Ceiling (100 ft) >30 9.9≤X≤30 4.9≤X<9.9 <4.9
Wind Speed (kt) <15 15≤X<25 25≤X<30 ≥30
Wind Gust (kt) <15 15≤X<25 25≤X<35 ≥35
Weather No Wx Reported VCTS -TS,-FZRA TS,FZRA +TS,+FZRA
TAF
KPDK 180734Z 1808/1906 00000KT P6SM FEW025 OVC080
  FM180900 00000KT P6SM SCT012 BKN025
  FM181100 00000KT 5SM BR BKN008
  FM181600 08004KT P6SM SCT008 BKN015 BKN040
  FM181900 10005KT P6SM VCSH SCT025 BKN040
  PROB30 1819/1824 3SM TSRA BKN030CB
  FM190100 03004KT P6SM BKN040


METAR
KPDK 180753Z AUTO 00000KT 9SM CLR 22/21 A3013 RMK AO2 SLP188 T02220211
KPDK 180653Z AUTO 00000KT 9SM OVC075 22/21 A3013 RMK AO2 SLP188 T02220211
KPDK 180553Z AUTO 00000KT 10SM BKN075 22/21 A3013 RMK AO2 SLP187 T02220211 10233 20222 58007
KPDK 180453Z AUTO 00000KT 10SM OVC075 23/22 A3014 RMK AO2 SLP193 T02280217 402560211

Radar Display
Forecast Discussion